Time;durP1;ratioP1;P1;durP2;ratioP2;P2;SDS_P1;SDS_P2;PMS_P1;PMS_P2;Temp;Humidity;BMP_temperature;BMP_pressure;BME280_temperature;BME280_humidity;BME280_pressure;Samples;Min_cycle;Max_cycle;Signal;HPM_P1;HPM_P2
2023/02/28 00:00:38;;;;;;;3.27;2.20;;;2.10;99.90;;;;;;5032963;28;20077;-82
2023/02/28 00:03:05;;;;;;;6.07;3.33;;;2.00;99.90;;;;;;5020528;28;20038;-81
2023/02/28 00:05:32;;;;;;;5.05;3.25;;;2.00;99.90;;;;;;5032640;28;20060;-82
2023/02/28 00:07:59;;;;;;;5.22;3.13;;;2.00;99.90;;;;;;5017120;28;20054;-81
2023/02/28 00:10:28;;;;;;;4.35;2.45;;;1.80;99.90;;;;;;5023226;28;20065;-82
2023/02/28 00:13:01;;;;;;;5.10;3.03;;;1.80;99.90;;;;;;5025099;28;20062;-81
2023/02/28 00:15:28;;;;;;;6.22;3.70;;;1.80;99.90;;;;;;5026673;28;20109;-81
2023/02/28 00:17:54;;;;;;;4.82;3.00;;;1.70;99.90;;;;;;5013913;28;20065;-82
2023/02/28 00:20:21;;;;;;;8.05;2.72;;;1.70;99.90;;;;;;5025428;28;20054;-80
2023/02/28 00:22:50;;;;;;;3.40;2.63;;;1.70;99.90;;;;;;5022114;28;20046;-81
2023/02/28 00:25:20;;;;;;;5.20;2.72;;;1.70;99.90;;;;;;5025956;28;20073;-80
2023/02/28 00:27:47;;;;;;;4.10;2.92;;;1.70;99.90;;;;;;5028712;28;20056;-82
2023/02/28 00:30:18;;;;;;;4.72;2.88;;;1.70;99.90;;;;;;5025768;28;20050;-81
2023/02/28 00:32:44;;;;;;;3.80;2.65;;;1.70;99.90;;;;;;5031013;28;20141;-82
2023/02/28 00:35:12;;;;;;;3.58;2.47;;;1.70;99.90;;;;;;5026176;28;20096;-82
2023/02/28 00:37:39;;;;;;;2.97;2.70;;;1.70;99.90;;;;;;5041308;28;20057;-80
2023/02/28 00:40:07;;;;;;;5.13;2.88;;;1.70;99.90;;;;;;5030810;28;20417;-80
2023/02/28 00:42:35;;;;;;;4.65;3.20;;;1.70;99.90;;;;;;5033893;28;20530;-81
2023/02/28 00:45:04;;;;;;;3.90;2.78;;;1.60;99.90;;;;;;5030869;28;20041;-81
2023/02/28 00:47:31;;;;;;;4.15;2.70;;;1.60;99.90;;;;;;5020436;28;20046;-80
2023/02/28 00:49:58;;;;;;;5.03;2.72;;;1.50;99.90;;;;;;5027150;28;20042;-80
2023/02/28 00:52:25;;;;;;;4.13;2.80;;;1.50;99.90;;;;;;5030193;28;20107;-80
2023/02/28 00:54:52;;;;;;;6.63;3.05;;;1.40;99.90;;;;;;5028850;28;20080;-80
2023/02/28 00:57:18;;;;;;;6.38;2.40;;;1.40;99.90;;;;;;5032816;28;20539;-80
2023/02/28 00:59:45;;;;;;;3.67;2.33;;;1.40;99.90;;;;;;5020623;28;20053;-81
2023/02/28 01:02:12;;;;;;;5.45;2.58;;;1.40;99.90;;;;;;5023225;28;20077;-81
2023/02/28 01:04:38;;;;;;;6.22;2.67;;;1.30;99.90;;;;;;5026046;28;20053;-81
2023/02/28 01:07:05;;;;;;;4.15;2.80;;;1.30;99.90;;;;;;5029688;28;20045;-78
2023/02/28 01:09:32;;;;;;;3.50;2.38;;;1.30;99.90;;;;;;5032686;28;20094;-80
2023/02/28 01:11:59;;;;;;;4.60;2.47;;;1.30;99.90;;;;;;5030406;28;20117;-81
2023/02/28 01:14:25;;;;;;;4.47;2.67;;;1.30;99.90;;;;;;5020607;28;20053;-80
2023/02/28 01:16:52;;;;;;;5.10;2.80;;;1.20;99.90;;;;;;5023255;28;20046;-80
2023/02/28 01:19:19;;;;;;;2.88;2.45;;;1.30;99.90;;;;;;5026679;28;20141;-80
2023/02/28 01:21:46;;;;;;;4.15;2.67;;;1.30;99.90;;;;;;5026170;28;20049;-80
2023/02/28 01:24:12;;;;;;;2.78;2.47;;;1.30;99.90;;;;;;5032327;28;20057;-80
2023/02/28 01:26:39;;;;;;;5.82;3.08;;;1.40;99.90;;;;;;5031208;28;20056;-80
2023/02/28 01:29:06;;;;;;;4.70;2.42;;;1.40;99.90;;;;;;5021385;28;20041;-80
2023/02/28 01:31:32;;;;;;;4.18;2.88;;;1.50;99.90;;;;;;5021983;28;20048;-80
2023/02/28 01:33:59;;;;;;;6.78;3.72;;;1.40;99.90;;;;;;5023448;28;20052;-80
2023/02/28 01:36:26;;;;;;;5.57;2.97;;;1.40;99.90;;;;;;5030091;28;20048;-80
2023/02/28 01:38:53;;;;;;;4.65;2.67;;;1.40;99.90;;;;;;5025979;28;20044;-81
2023/02/28 01:41:24;;;;;;;4.30;2.83;;;1.40;99.90;;;;;;5028365;28;20132;-81
2023/02/28 01:44:02;;;;;;;7.07;3.13;;;1.40;99.90;;;;;;5019545;28;20077;-80
2023/02/28 01:46:34;;;;;;;4.15;3.08;;;1.40;99.90;;;;;;5021849;28;20050;-80
2023/02/28 01:49:12;;;;;;;7.07;3.08;;;1.40;99.90;;;;;;5027411;28;20038;-80
2023/02/28 01:51:50;;;;;;;3.60;3.00;;;1.40;99.90;;;;;;5030112;28;20053;-80
2023/02/28 01:54:24;;;;;;;6.65;3.17;;;1.40;99.90;;;;;;5032483;28;20497;-81
2023/02/28 01:57:01;;;;;;;3.88;3.00;;;1.40;99.90;;;;;;5018917;28;20785;-80
2023/02/28 01:59:48;;;;;;;5.55;3.85;;;1.40;99.90;;;;;;5023070;28;20133;-82
2023/02/28 02:02:18;;;;;;;3.33;2.80;;;1.40;99.90;;;;;;5043620;28;20052;-81
2023/02/28 02:05:02;;;;;;;5.82;2.67;;;1.50;99.90;;;;;;5023848;28;20073;-82
2023/02/28 02:07:35;;;;;;;4.88;3.03;;;1.50;99.90;;;;;;5029958;28;20084;-81
2023/02/28 02:10:16;;;;;;;5.30;2.60;;;1.50;99.90;;;;;;5026734;28;20065;-81
2023/02/28 02:13:01;;;;;;;4.28;3.03;;;1.60;99.90;;;;;;5045227;28;20061;-80
2023/02/28 02:15:44;;;;;;;6.25;2.90;;;1.60;99.90;;;;;;5033259;28;20050;-80
2023/02/28 02:18:29;;;;;;;4.30;2.97;;;1.60;99.90;;;;;;5034376;28;20057;-80
2023/02/28 02:21:08;;;;;;;7.07;3.03;;;1.70;99.90;;;;;;5023996;28;20046;-80
2023/02/28 02:23:49;;;;;;;4.65;3.00;;;1.70;99.90;;;;;;5028644;28;20050;-80
2023/02/28 02:26:18;;;;;;;6.72;3.78;;;1.70;99.90;;;;;;5021648;28;20076;-81
2023/02/28 02:29:11;;;;;;;4.32;2.33;;;1.70;99.90;;;;;;5022613;28;20408;-81
2023/02/28 02:31:54;;;;;;;7.40;3.03;;;1.70;99.90;;;;;;5003161;28;20053;-82
2023/02/28 02:34:45;;;;;;;3.47;2.80;;;1.70;99.90;;;;;;5025607;28;20049;-80
2023/02/28 02:37:28;;;;;;;6.43;2.72;;;1.60;99.90;;;;;;5028622;28;20515;-81
2023/02/28 02:40:13;;;;;;;4.45;3.30;;;1.60;99.90;;;;;;5015000;28;20057;-81
2023/02/28 02:43:06;;;;;;;4.00;2.83;;;1.60;99.90;;;;;;5019246;28;20080;-80
2023/02/28 02:45:51;;;;;;;4.15;3.00;;;1.60;99.90;;;;;;5027141;28;20049;-81
2023/02/28 02:48:21;;;;;;;4.78;3.15;;;1.50;99.90;;;;;;5028504;28;20046;-81
2023/02/28 02:51:01;;;;;;;6.15;3.05;;;1.50;99.90;;;;;;5026980;28;20076;-80
2023/02/28 02:53:36;;;;;;;3.70;3.17;;;1.50;99.90;;;;;;5021134;28;20046;-81
2023/02/28 02:56:05;;;;;;;5.72;3.22;;;1.40;99.90;;;;;;5021201;28;20482;-81
2023/02/28 02:58:41;;;;;;;5.22;3.38;;;1.40;99.90;;;;;;5025446;28;20049;-81
2023/02/28 03:01:14;;;;;;;6.63;3.15;;;1.40;99.90;;;;;;5029775;28;20548;-81
2023/02/28 03:03:41;;;;;;;3.47;2.85;;;1.40;99.90;;;;;;5029901;28;20060;-81
2023/02/28 03:06:09;;;;;;;6.93;3.20;;;1.40;99.90;;;;;;5024850;28;20081;-81
2023/02/28 03:08:38;;;;;;;5.40;3.60;;;1.40;99.90;;;;;;5016880;28;20146;-81
2023/02/28 03:11:12;;;;;;;4.55;2.80;;;1.40;99.90;;;;;;5023452;28;20452;-81
2023/02/28 03:14:10;;;;;;;5.55;3.13;;;1.40;99.90;;;;;;5023898;28;20046;-81
2023/02/28 03:16:49;;;;;;;5.55;3.33;;;1.50;99.90;;;;;;5026816;28;20524;-81
2023/02/28 03:19:39;;;;;;;5.43;3.20;;;1.50;99.90;;;;;;5039781;28;20056;-81
2023/02/28 03:22:12;;;;;;;5.40;3.05;;;1.50;99.90;;;;;;5016808;28;20042;-81
2023/02/28 03:25:00;;;;;;;8.70;3.40;;;1.40;99.90;;;;;;5021432;28;20049;-79
2023/02/28 03:27:41;;;;;;;5.60;3.10;;;1.40;99.90;;;;;;5025313;28;20049;-80
2023/02/28 03:30:26;;;;;;;4.03;3.00;;;1.40;99.90;;;;;;5039237;28;20085;-81
2023/02/28 03:33:12;;;;;;;4.32;3.13;;;1.20;99.90;;;;;;5025330;28;20056;-79
2023/02/28 03:35:44;;;;;;;5.63;3.15;;;1.20;99.90;;;;;;5014910;28;20046;-80
2023/02/28 03:38:25;;;;;;;4.15;2.95;;;1.20;99.90;;;;;;5020941;28;20050;-81
2023/02/28 03:41:04;;;;;;;3.97;2.83;;;1.10;99.90;;;;;;5023075;28;20055;-80
2023/02/28 03:43:35;;;;;;;4.43;3.10;;;1.10;99.90;;;;;;5043052;28;20109;-81
2023/02/28 03:46:07;;;;;;;3.58;2.97;;;1.10;99.90;;;;;;5014245;28;20053;-82
2023/02/28 03:48:44;;;;;;;3.97;2.80;;;1.10;99.90;;;;;;5017799;28;20046;-80
2023/02/28 03:51:16;;;;;;;4.60;2.85;;;1.00;99.90;;;;;;5017605;28;20056;-81
2023/02/28 03:53:49;;;;;;;5.07;3.55;;;0.90;99.90;;;;;;5019392;28;20084;-81
2023/02/28 03:56:31;;;;;;;5.15;2.88;;;0.90;99.90;;;;;;5020565;28;20137;-80
2023/02/28 03:59:02;;;;;;;5.55;3.53;;;0.80;99.90;;;;;;5025536;28;20531;-81
2023/02/28 04:01:41;;;;;;;4.60;3.42;;;0.80;99.90;;;;;;5030316;28;20517;-82
2023/02/28 04:04:09;;;;;;;5.95;3.78;;;0.70;99.90;;;;;;5018328;28;20072;-81
2023/02/28 04:06:36;;;;;;;3.67;3.13;;;0.70;99.90;;;;;;5018749;28;20050;-81
2023/02/28 04:09:04;;;;;;;5.10;2.95;;;0.50;99.90;;;;;;5017896;28;20046;-80
2023/02/28 04:11:37;;;;;;;3.88;3.00;;;0.40;99.90;;;;;;5025862;28;20088;-80
2023/02/28 04:14:05;;;;;;;8.40;3.85;;;0.40;99.90;;;;;;5024234;28;20040;-80
2023/02/28 04:16:34;;;;;;;6.28;3.50;;;0.40;99.90;;;;;;5027061;28;20101;-81
2023/02/28 04:19:05;;;;;;;7.00;3.75;;;0.30;99.90;;;;;;5016102;28;20195;-80
2023/02/28 04:21:33;;;;;;;5.00;3.40;;;0.30;99.90;;;;;;5022382;28;20049;-82
2023/02/28 04:24:00;;;;;;;4.60;3.50;;;0.20;99.90;;;;;;5015693;28;20365;-80
2023/02/28 04:26:31;;;;;;;5.40;3.75;;;0.20;99.90;;;;;;5026035;28;20049;-80
2023/02/28 04:28:59;;;;;;;6.50;3.45;;;0.30;99.90;;;;;;5032536;28;20129;-81
2023/02/28 04:31:26;;;;;;;5.13;3.35;;;0.30;99.90;;;;;;5010959;28;20042;-81
2023/02/28 04:33:53;;;;;;;7.75;3.97;;;0.30;99.90;;;;;;5016428;28;20056;-81
2023/02/28 04:36:20;;;;;;;8.20;3.38;;;0.30;99.90;;;;;;5020503;28;20050;-80
2023/02/28 04:38:46;;;;;;;5.28;3.72;;;0.30;99.90;;;;;;5022962;28;20136;-81
2023/02/28 04:41:13;;;;;;;5.68;3.50;;;0.20;99.90;;;;;;5024254;28;20421;-79
2023/02/28 04:43:40;;;;;;;5.30;3.45;;;0.30;99.90;;;;;;5025928;28;20050;-80
2023/02/28 04:46:07;;;;;;;6.57;3.80;;;0.30;99.90;;;;;;5019400;28;20501;-80
2023/02/28 04:48:37;;;;;;;4.10;3.30;;;0.40;99.90;;;;;;5018117;28;20063;-80
2023/02/28 04:51:09;;;;;;;7.38;3.40;;;0.40;99.90;;;;;;5024324;28;20042;-81
2023/02/28 04:53:38;;;;;;;6.45;4.03;;;0.40;99.90;;;;;;5016889;28;20052;-80
2023/02/28 04:56:06;;;;;;;6.18;3.88;;;0.40;99.90;;;;;;5043301;28;20121;-82
2023/02/28 04:58:34;;;;;;;4.25;3.70;;;0.40;99.90;;;;;;5023700;28;20070;-79
2023/02/28 05:01:03;;;;;;;5.18;3.65;;;0.40;99.90;;;;;;5011787;28;20046;-80
2023/02/28 05:03:30;;;;;;;4.32;3.50;;;0.50;99.90;;;;;;5022804;28;20433;-81
2023/02/28 05:05:57;;;;;;;5.07;3.65;;;0.50;99.90;;;;;;5021267;28;20056;-79
2023/02/28 05:08:25;;;;;;;6.15;4.50;;;0.50;99.90;;;;;;5026788;28;20087;-82
2023/02/28 05:10:51;;;;;;;7.53;3.60;;;0.50;99.90;;;;;;5026787;28;20049;-80
2023/02/28 05:13:18;;;;;;;5.57;3.78;;;0.50;99.90;;;;;;5021887;28;20058;-81
2023/02/28 05:15:44;;;;;;;5.40;4.13;;;0.60;99.90;;;;;;5017908;28;20133;-79
2023/02/28 05:18:11;;;;;;;6.20;3.85;;;0.60;99.90;;;;;;5020439;28;20136;-80
2023/02/28 05:20:38;;;;;;;5.80;4.15;;;0.60;99.90;;;;;;5025880;28;20085;-82
2023/02/28 05:23:05;;;;;;;8.75;4.28;;;0.70;99.90;;;;;;5028293;28;20444;-80
2023/02/28 05:25:31;;;;;;;5.43;4.22;;;0.70;99.90;;;;;;5032819;28;20132;-80
2023/02/28 05:27:58;;;;;;;5.43;4.47;;;0.70;99.90;;;;;;5022639;28;20653;-80
2023/02/28 05:30:25;;;;;;;6.97;4.65;;;0.70;99.90;;;;;;5022444;28;20464;-80
2023/02/28 05:32:52;;;;;;;6.28;4.32;;;0.60;99.90;;;;;;5025165;28;20085;-81
2023/02/28 05:35:18;;;;;;;5.85;4.20;;;0.50;99.90;;;;;;5029408;28;20466;-81
2023/02/28 05:37:45;;;;;;;5.93;4.38;;;0.50;99.90;;;;;;5028114;28;20045;-80
2023/02/28 05:40:12;;;;;;;6.07;4.43;;;0.40;99.90;;;;;;5028599;28;20057;-80
2023/02/28 05:42:39;;;;;;;5.88;4.55;;;0.40;99.90;;;;;;5015075;28;20450;-80
2023/02/28 05:45:06;;;;;;;6.40;4.35;;;0.30;99.90;;;;;;5024377;28;20136;-78
2023/02/28 05:47:33;;;;;;;6.32;4.53;;;0.40;99.90;;;;;;5026976;28;20417;-81
2023/02/28 05:50:00;;;;;;;8.18;4.55;;;0.40;99.90;;;;;;5026862;28;20159;-81
2023/02/28 05:52:29;;;;;;;8.00;5.57;;;0.30;99.90;;;;;;5032694;28;20137;-82
2023/02/28 05:54:56;;;;;;;7.20;4.93;;;0.40;99.90;;;;;;5026190;28;20066;-81
2023/02/28 05:57:23;;;;;;;8.00;5.22;;;0.40;99.90;;;;;;5020356;28;20144;-79
2023/02/28 05:59:50;;;;;;;6.93;4.93;;;0.40;99.90;;;;;;5018807;28;20045;-81
2023/02/28 06:02:18;;;;;;;5.55;4.82;;;0.40;99.90;;;;;;5025229;28;20049;-80
2023/02/28 06:04:45;;;;;;;7.63;5.32;;;0.40;99.90;;;;;;5029071;28;20052;-80
2023/02/28 06:07:12;;;;;;;8.13;5.47;;;0.40;99.90;;;;;;5027399;28;20081;-81
2023/02/28 06:09:39;;;;;;;6.65;4.50;;;0.40;99.90;;;;;;5021495;28;20141;-81
2023/02/28 06:12:07;;;;;;;8.68;5.85;;;0.30;99.90;;;;;;5027405;28;20042;-80
2023/02/28 06:14:34;;;;;;;4.88;4.32;;;0.30;99.90;;;;;;5023357;28;20390;-80
2023/02/28 06:17:01;;;;;;;6.10;5.10;;;0.30;99.90;;;;;;5027387;28;20041;-80
2023/02/28 06:19:29;;;;;;;6.88;5.30;;;0.30;99.90;;;;;;5030264;28;20045;-81
2023/02/28 06:21:57;;;;;;;9.88;5.40;;;0.30;99.90;;;;;;5033148;28;20050;-80
2023/02/28 06:24:27;;;;;;;7.97;5.32;;;0.30;99.90;;;;;;5012121;28;20049;-80
2023/02/28 06:26:54;;;;;;;8.45;4.95;;;0.30;99.90;;;;;;5019404;28;20129;-80
2023/02/28 06:29:21;;;;;;;7.03;4.93;;;0.30;99.90;;;;;;5023426;28;20108;-81
2023/02/28 06:31:48;;;;;;;7.65;5.82;;;0.30;99.90;;;;;;5018317;28;20048;-80
2023/02/28 06:34:15;;;;;;;8.18;5.55;;;0.30;99.90;;;;;;5022153;28;20497;-80
2023/02/28 06:36:42;;;;;;;7.40;6.57;;;0.40;99.90;;;;;;5028685;28;20076;-80
2023/02/28 06:39:09;;;;;;;11.23;7.60;;;0.40;99.90;;;;;;5019041;28;20049;-80
2023/02/28 06:41:39;;;;;;;8.32;6.43;;;0.30;99.90;;;;;;5037883;28;20091;-81
2023/02/28 06:44:21;;;;;;;6.95;5.57;;;0.30;99.90;;;;;;5027126;28;20123;-80
2023/02/28 06:46:48;;;;;;;11.20;7.25;;;0.40;99.90;;;;;;5027929;28;20059;-80
2023/02/28 06:49:15;;;;;;;9.43;6.80;;;0.40;99.90;;;;;;5030230;28;20136;-80
2023/02/28 06:51:46;;;;;;;8.23;6.32;;;0.40;99.90;;;;;;5024733;28;20569;-80
2023/02/28 06:54:13;;;;;;;7.07;5.40;;;0.50;99.90;;;;;;5038692;28;20048;-80
2023/02/28 06:56:40;;;;;;;7.07;5.43;;;0.50;99.90;;;;;;5032062;28;20516;-80
2023/02/28 06:59:07;;;;;;;7.35;5.30;;;0.50;99.90;;;;;;5029225;28;20132;-80
2023/02/28 07:01:33;;;;;;;8.82;5.45;;;0.50;99.90;;;;;;5036607;28;20049;-80
2023/02/28 07:04:01;;;;;;;7.82;5.32;;;0.60;99.90;;;;;;5034904;28;20053;-80
2023/02/28 07:06:27;;;;;;;6.82;5.22;;;0.60;99.90;;;;;;5020828;28;20483;-80
2023/02/28 07:08:54;;;;;;;7.35;5.55;;;0.60;99.90;;;;;;5020901;28;20489;-81
2023/02/28 07:11:25;;;;;;;8.00;5.72;;;0.60;99.90;;;;;;5021638;28;20107;-81
2023/02/28 07:13:55;;;;;;;8.35;5.85;;;0.70;99.90;;;;;;5026995;28;20140;-80
2023/02/28 07:16:24;;;;;;;8.43;5.50;;;0.70;99.90;;;;;;5025363;28;20046;-80
2023/02/28 07:18:53;;;;;;;8.77;5.82;;;0.70;99.90;;;;;;5045055;28;20125;-84
2023/02/28 07:21:20;;;;;;;8.13;5.15;;;0.70;99.90;;;;;;5029069;28;20137;-79
2023/02/28 07:23:47;;;;;;;7.63;5.80;;;0.70;99.90;;;;;;5020649;28;20145;-81
2023/02/28 07:26:16;;;;;;;9.43;6.70;;;0.60;99.90;;;;;;5025152;28;20046;-80
2023/02/28 07:28:45;;;;;;;7.85;5.38;;;0.60;99.90;;;;;;5026789;28;20057;-80
2023/02/28 07:31:13;;;;;;;10.95;6.72;;;0.60;99.90;;;;;;5023408;28;20465;-81
2023/02/28 07:33:40;;;;;;;14.88;8.43;;;0.60;99.90;;;;;;5021352;28;20461;-81
2023/02/28 07:36:14;;;;;;;7.75;5.43;;;0.60;99.90;;;;;;5032971;28;20085;-79
2023/02/28 07:38:43;;;;;;;9.55;6.47;;;0.50;99.90;;;;;;5025207;28;20053;-80
2023/02/28 07:41:15;;;;;;;9.55;5.30;;;0.50;99.90;;;;;;5022292;28;20509;-82
2023/02/28 07:43:42;;;;;;;9.45;6.18;;;0.40;99.90;;;;;;5027563;28;20049;-81
2023/02/28 07:46:11;;;;;;;10.55;6.30;;;0.40;99.90;;;;;;5027187;28;20054;-80
2023/02/28 07:48:38;;;;;;;6.13;4.95;;;0.40;99.90;;;;;;5020125;28;20050;-81
2023/02/28 07:51:05;;;;;;;9.48;6.85;;;0.30;99.90;;;;;;5015524;28;20041;-80
2023/02/28 07:53:31;;;;;;;9.45;6.63;;;0.40;99.90;;;;;;5022072;28;20045;-80
2023/02/28 07:56:00;;;;;;;9.93;6.78;;;0.30;99.90;;;;;;5027210;28;20041;-82
2023/02/28 07:58:28;;;;;;;10.43;7.00;;;0.30;99.90;;;;;;5026431;28;20539;-81
2023/02/28 08:00:55;;;;;;;9.73;6.75;;;0.40;99.90;;;;;;5028780;28;20045;-80
2023/02/28 08:03:23;;;;;;;8.82;6.30;;;0.40;99.90;;;;;;5015832;28;20042;-80
2023/02/28 08:05:52;;;;;;;14.10;7.43;;;0.40;99.90;;;;;;5020440;28;20076;-80
2023/02/28 08:08:18;;;;;;;10.18;5.70;;;0.50;99.90;;;;;;5020658;28;20533;-82
2023/02/28 08:10:45;;;;;;;8.65;5.88;;;0.50;99.90;;;;;;5027449;28;20095;-80
2023/02/28 08:13:12;;;;;;;13.20;8.38;;;0.60;99.90;;;;;;5026861;28;20412;-81
2023/02/28 08:15:41;;;;;;;8.40;6.07;;;0.70;99.90;;;;;;5024089;28;20081;-81
2023/02/28 08:18:08;;;;;;;9.48;6.20;;;0.70;99.90;;;;;;5012045;28;20061;-81
2023/02/28 08:20:35;;;;;;;7.68;5.93;;;0.70;99.90;;;;;;5020190;28;20132;-80
2023/02/28 08:23:02;;;;;;;14.00;8.38;;;0.70;99.90;;;;;;5021796;28;20077;-80
2023/02/28 08:25:29;;;;;;;13.98;7.13;;;0.80;99.90;;;;;;5025566;28;20042;-81
2023/02/28 08:27:55;;;;;;;9.65;6.07;;;0.80;99.90;;;;;;5027777;28;20092;-82
2023/02/28 08:30:22;;;;;;;10.10;6.28;;;0.90;99.90;;;;;;5022951;28;20045;-81
2023/02/28 08:32:49;;;;;;;10.07;6.97;;;1.00;99.90;;;;;;5017665;28;20132;-80
2023/02/28 08:35:16;;;;;;;10.48;5.40;;;1.00;99.90;;;;;;5029797;28;20081;-80
2023/02/28 08:37:42;;;;;;;14.95;6.65;;;1.00;99.90;;;;;;5024033;28;20133;-81
2023/02/28 08:40:10;;;;;;;7.95;6.13;;;1.10;99.90;;;;;;5026199;28;20057;-79
2023/02/28 08:42:36;;;;;;;12.80;6.85;;;1.20;99.90;;;;;;5028104;28;20459;-80
2023/02/28 08:45:04;;;;;;;11.40;6.70;;;1.20;99.90;;;;;;5023066;28;20418;-80
2023/02/28 08:47:30;;;;;;;9.40;6.65;;;1.30;99.90;;;;;;5015817;28;20072;-82
2023/02/28 08:49:57;;;;;;;8.45;5.72;;;1.30;99.90;;;;;;5017716;28;20128;-80
2023/02/28 08:52:24;;;;;;;17.15;9.30;;;1.40;99.90;;;;;;5023905;28;20084;-81
2023/02/28 08:54:50;;;;;;;12.85;7.75;;;1.40;99.90;;;;;;5026161;28;20124;-83
2023/02/28 08:57:17;;;;;;;11.88;6.32;;;1.50;99.90;;;;;;5031800;28;20474;-81
2023/02/28 08:59:44;;;;;;;8.48;5.40;;;1.60;99.90;;;;;;5018031;28;20046;-80
2023/02/28 09:02:13;;;;;;;9.20;5.95;;;1.60;99.90;;;;;;5019719;28;20804;-80
2023/02/28 09:04:41;;;;;;;7.18;5.82;;;1.70;99.90;;;;;;5026971;28;20109;-81
2023/02/28 09:07:07;;;;;;;7.32;6.13;;;1.70;99.90;;;;;;5027137;28;20113;-81
2023/02/28 09:09:34;;;;;;;8.50;6.18;;;1.90;99.90;;;;;;5028113;28;20077;-80
2023/02/28 09:12:02;;;;;;;7.13;5.30;;;2.00;99.90;;;;;;5032060;28;20080;-80
2023/02/28 09:14:29;;;;;;;10.15;5.80;;;2.10;99.90;;;;;;5025787;28;20139;-80
2023/02/28 09:16:56;;;;;;;8.48;5.90;;;2.10;99.90;;;;;;5027708;28;20053;-81
2023/02/28 09:19:22;;;;;;;7.95;5.50;;;2.20;99.90;;;;;;5029789;28;20050;-81
2023/02/28 09:21:49;;;;;;;7.80;5.65;;;2.20;99.90;;;;;;5029350;28;20069;-81
2023/02/28 09:24:16;;;;;;;13.27;6.93;;;2.20;99.90;;;;;;5026027;28;20057;-82
2023/02/28 09:26:43;;;;;;;8.88;6.95;;;2.30;99.90;;;;;;5032164;28;20563;-80
2023/02/28 09:29:29;;;;;;;9.77;6.28;;;2.40;99.90;;;;;;5034211;28;20092;-81
2023/02/28 09:31:58;;;;;;;10.45;6.63;;;2.50;99.90;;;;;;5034139;28;20421;-80
2023/02/28 09:34:26;;;;;;;9.77;6.23;;;2.50;99.90;;;;;;5029016;28;20042;-81
2023/02/28 09:36:54;;;;;;;9.50;5.53;;;2.60;99.90;;;;;;5026375;28;20038;-81
2023/02/28 09:39:23;;;;;;;10.77;6.78;;;2.60;99.90;;;;;;5027837;28;20072;-81
2023/02/28 09:41:52;;;;;;;7.78;5.72;;;2.70;99.90;;;;;;5023745;28;20085;-81
2023/02/28 09:44:30;;;;;;;8.50;5.82;;;2.70;99.90;;;;;;5014384;28;20089;-81
2023/02/28 09:47:11;;;;;;;10.32;6.97;;;2.70;99.90;;;;;;5031678;28;20148;-81
2023/02/28 09:49:43;;;;;;;8.77;6.43;;;2.80;99.90;;;;;;5043454;28;20043;-80
2023/02/28 09:52:17;;;;;;;7.97;5.90;;;3.00;99.90;;;;;;5028365;28;20128;-81
2023/02/28 09:54:44;;;;;;;7.90;6.30;;;3.10;99.90;;;;;;5024645;28;20074;-81
2023/02/28 09:57:33;;;;;;;8.52;6.22;;;3.20;99.90;;;;;;5021144;28;20161;-80
2023/02/28 10:00:31;;;;;;;7.25;6.05;;;3.30;99.90;;;;;;5025960;28;20051;-80
2023/02/28 10:03:02;;;;;;;9.70;6.10;;;3.20;99.90;;;;;;5045418;28;20465;-80
2023/02/28 10:05:36;;;;;;;11.73;7.95;;;3.20;99.90;;;;;;5028164;28;20133;-81
2023/02/28 10:08:25;;;;;;;9.45;6.35;;;3.20;99.90;;;;;;5027142;28;20046;-80
2023/02/28 10:10:55;;;;;;;8.95;5.45;;;3.20;99.90;;;;;;5028171;28;20049;-80
2023/02/28 10:13:31;;;;;;;8.40;6.47;;;3.10;99.90;;;;;;5020793;28;20046;-81
2023/02/28 10:16:03;;;;;;;9.52;6.43;;;3.10;99.90;;;;;;5023394;28;20133;-81
2023/02/28 10:18:52;;;;;;;8.70;6.22;;;3.20;99.90;;;;;;5030096;28;20042;-83
2023/02/28 10:21:44;;;;;;;9.00;6.20;;;3.30;99.90;;;;;;5035849;28;20054;-80
2023/02/28 10:24:30;;;;;;;8.52;5.85;;;3.40;99.90;;;;;;5035695;28;20096;-80
2023/02/28 10:27:13;;;;;;;6.57;5.38;;;3.40;99.90;;;;;;5023773;28;20046;-82
2023/02/28 10:29:43;;;;;;;8.68;5.72;;;3.40;99.90;;;;;;5023834;28;20054;-81
2023/02/28 10:32:15;;;;;;;9.48;6.28;;;3.50;99.90;;;;;;5027137;28;20064;-78
2023/02/28 10:34:42;;;;;;;8.95;5.75;;;3.50;99.90;;;;;;5020776;28;20065;-80
2023/02/28 10:37:10;;;;;;;8.10;5.72;;;3.60;99.90;;;;;;5017788;28;20046;-81
2023/02/28 10:39:42;;;;;;;9.23;6.35;;;3.60;99.90;;;;;;5014661;28;20416;-82
2023/02/28 10:42:19;;;;;;;10.93;6.35;;;3.70;99.90;;;;;;5019740;28;20081;-81
2023/02/28 10:44:46;;;;;;;7.97;5.70;;;3.80;99.90;;;;;;5022305;28;20045;-81
2023/02/28 10:47:19;;;;;;;9.40;5.10;;;3.90;99.90;;;;;;5029235;28;20056;-82
2023/02/28 10:49:48;;;;;;;7.40;5.78;;;4.00;99.90;;;;;;5032622;28;20100;-81
2023/02/28 10:52:36;;;;;;;8.27;5.70;;;3.90;99.90;;;;;;5014713;28;20136;-81
2023/02/28 10:55:35;;;;;;;7.80;5.80;;;4.00;99.90;;;;;;5017016;28;20109;-81
2023/02/28 10:58:02;;;;;;;8.75;5.43;;;4.10;99.90;;;;;;4989088;28;20076;-82
2023/02/28 11:00:34;;;;;;;8.57;6.38;;;4.20;99.90;;;;;;5026258;28;20132;-81
2023/02/28 11:03:01;;;;;;;8.93;5.72;;;4.20;99.90;;;;;;5030803;28;20077;-80
2023/02/28 11:05:35;;;;;;;8.45;5.63;;;4.40;99.90;;;;;;5024044;28;20042;-81
2023/02/28 11:08:18;;;;;;;7.80;6.18;;;4.40;99.90;;;;;;5035918;28;20048;-81
2023/02/28 11:11:00;;;;;;;8.35;5.28;;;4.50;99.90;;;;;;5023326;28;20037;-81
2023/02/28 11:13:37;;;;;;;6.63;5.28;;;4.60;99.90;;;;;;5025194;28;20124;-80
2023/02/28 11:16:07;;;;;;;9.05;5.57;;;4.70;99.90;;;;;;5028877;28;20128;-82
2023/02/28 11:18:43;;;;;;;9.18;5.68;;;4.80;99.90;;;;;;5028172;28;20129;-81
2023/02/28 11:21:17;;;;;;;9.95;6.05;;;4.80;99.90;;;;;;5013599;28;20520;-80
2023/02/28 11:23:45;;;;;;;7.00;5.28;;;4.80;99.90;;;;;;5022873;28;20506;-81
2023/02/28 11:26:31;;;;;;;10.50;5.68;;;4.80;99.90;;;;;;5021161;28;20424;-79
2023/02/28 11:29:28;;;;;;;6.05;4.32;;;5.00;99.90;;;;;;5026048;28;20477;-81
2023/02/28 11:32:12;;;;;;;9.60;5.30;;;5.00;99.90;;;;;;5043640;28;20048;-83
2023/02/28 11:34:41;;;;;;;6.07;5.15;;;5.10;99.90;;;;;;5011051;28;20057;-81
2023/02/28 11:37:19;;;;;;;10.30;5.20;;;5.10;99.90;;;;;;5015018;28;20045;-81
2023/02/28 11:39:46;;;;;;;10.63;5.82;;;5.20;99.90;;;;;;5023568;28;20064;-81
2023/02/28 11:42:41;;;;;;;7.35;5.00;;;5.30;99.90;;;;;;5025803;28;20077;-81
2023/02/28 11:45:26;;;;;;;7.32;5.43;;;5.30;99.90;;;;;;5022781;28;20045;-81
2023/02/28 11:48:23;;;;;;;8.43;5.38;;;5.40;99.90;;;;;;5016188;28;20153;-80
2023/02/28 11:51:15;;;;;;;7.57;5.13;;;5.30;99.90;;;;;;5017849;28;20049;-82
2023/02/28 11:53:51;;;;;;;8.73;5.65;;;5.40;99.90;;;;;;5022337;28;20144;-81
2023/02/28 11:56:30;;;;;;;6.70;5.20;;;5.50;99.90;;;;;;5025308;28;20081;-81
2023/02/28 11:59:05;;;;;;;7.75;5.68;;;5.50;99.90;;;;;;5029794;28;20049;-80
2023/02/28 12:02:08;;;;;;;9.25;6.25;;;5.40;99.90;;;;;;5016049;28;20051;-80
2023/02/28 12:05:29;;;;;;;12.65;6.28;;;5.30;99.90;;;;;;5016226;28;20503;-79
2023/02/28 12:08:16;;;;;;;9.43;5.95;;;5.40;99.90;;;;;;5014778;28;20041;-83
2023/02/28 12:11:28;;;;;;;8.43;5.82;;;5.50;99.90;;;;;;5028163;28;20124;-80
2023/02/28 12:14:16;;;;;;;10.48;5.50;;;5.50;99.90;;;;;;5024932;28;20081;-81
2023/02/28 12:17:07;;;;;;;8.60;5.70;;;5.50;99.90;;;;;;5018940;28;20068;-81
2023/02/28 12:19:48;;;;;;;;;;;5.50;99.90;;;;;;5014686;28;20050;-79
2023/02/28 12:22:24;;;;;;;8.13;6.07;;;5.60;99.90;;;;;;5018686;28;19926;-81
2023/02/28 12:25:06;;;;;;;7.10;5.97;;;5.40;99.90;;;;;;5024988;28;20049;-81
2023/02/28 12:27:39;;;;;;;9.93;6.53;;;5.20;99.90;;;;;;5023625;28;20425;-81
2023/02/28 12:30:18;;;;;;;8.45;6.18;;;5.10;99.90;;;;;;5019275;28;20050;-81
2023/02/28 12:33:08;;;;;;;7.60;5.80;;;5.10;99.90;;;;;;5021939;28;20038;-82
2023/02/28 12:35:40;;;;;;;7.38;5.88;;;5.10;99.90;;;;;;5025351;28;20144;-80
2023/02/28 12:38:17;;;;;;;8.18;5.45;;;5.00;99.90;;;;;;5029449;28;20046;-80
2023/02/28 12:40:53;;;;;;;7.53;5.40;;;4.90;99.90;;;;;;5025156;28;20489;-80
2023/02/28 12:43:27;;;;;;;9.73;6.88;;;4.90;99.90;;;;;;5014877;28;20057;-81
2023/02/28 12:45:58;;;;;;;9.60;6.35;;;5.00;99.90;;;;;;5012613;28;20100;-81
2023/02/28 12:48:42;;;;;;;14.98;6.63;;;5.10;99.90;;;;;;5020105;28;20050;-81
2023/02/28 12:51:11;;;;;;;8.95;5.40;;;5.20;99.90;;;;;;5024371;28;20125;-81
2023/02/28 12:53:50;;;;;;;10.10;6.45;;;5.10;99.90;;;;;;5020866;28;20124;-81
2023/02/28 12:56:34;;;;;;;9.65;6.20;;;5.20;99.90;;;;;;5026529;28;20087;-80
2023/02/28 12:59:24;;;;;;;12.75;6.70;;;5.10;99.90;;;;;;5016403;28;20417;-81
2023/02/28 13:01:51;;;;;;;8.02;6.45;;;5.10;99.90;;;;;;4989961;28;20128;-82
2023/02/28 13:04:31;;;;;;;10.80;6.97;;;5.10;99.90;;;;;;5040038;28;20136;-80
2023/02/28 13:07:16;;;;;;;9.02;5.72;;;5.00;99.90;;;;;;5029585;28;20047;-81
2023/02/28 13:09:53;;;;;;;10.57;7.13;;;5.00;99.90;;;;;;5028914;28;20521;-81
2023/02/28 13:12:20;;;;;;;7.25;5.53;;;4.90;99.90;;;;;;5022913;28;20052;-81
2023/02/28 13:14:47;;;;;;;11.25;7.30;;;4.90;99.90;;;;;;5024478;28;20088;-82
2023/02/28 13:17:21;;;;;;;8.82;6.53;;;4.80;99.90;;;;;;5023831;28;20046;-82
2023/02/28 13:19:54;;;;;;;12.27;7.55;;;4.80;99.90;;;;;;5029095;28;20124;-81
2023/02/28 13:22:38;;;;;;;11.27;7.07;;;4.80;99.90;;;;;;5030805;28;20050;-81